sensor_id;sensor_type;location;lat;lon;timestamp;pressure;altitude;pressure_sealevel;temperature;humidity
22181;BME280;11256;50.830;12.834;2023-06-22T00:00:41;97932.09;;;24.45;53.02
22181;BME280;11256;50.830;12.834;2023-06-22T00:05:42;97918.81;;;24.35;53.07
22181;BME280;11256;50.830;12.834;2023-06-22T00:10:43;97930.19;;;24.30;53.57
22181;BME280;11256;50.830;12.834;2023-06-22T00:15:44;97919.31;;;24.22;53.35
22181;BME280;11256;50.830;12.834;2023-06-22T00:20:44;97908.09;;;24.15;53.84
22181;BME280;11256;50.830;12.834;2023-06-22T00:25:46;97909.09;;;24.07;53.60
22181;BME280;11256;50.830;12.834;2023-06-22T00:30:48;97916.06;;;24.01;53.79
22181;BME280;11256;50.830;12.834;2023-06-22T00:35:49;97907.13;;;23.88;53.82
22181;BME280;11256;50.830;12.834;2023-06-22T00:40:52;97913.25;;;23.82;53.95
22181;BME280;11256;50.830;12.834;2023-06-22T00:45:55;97913.44;;;23.73;54.03
22181;BME280;11256;50.830;12.834;2023-06-22T00:50:56;97908.09;;;23.65;54.16
22181;BME280;11256;50.830;12.834;2023-06-22T00:55:57;97900.00;;;23.56;54.03
22181;BME280;11256;50.830;12.834;2023-06-22T01:01:00;97903.91;;;23.55;54.31
22181;BME280;11256;50.830;12.834;2023-06-22T01:06:10;97901.31;;;23.47;54.41
22181;BME280;11256;50.830;12.834;2023-06-22T01:11:26;97907.13;;;23.42;54.33
22181;BME280;11256;50.830;12.834;2023-06-22T01:16:33;97908.13;;;23.34;54.38
22181;BME280;11256;50.830;12.834;2023-06-22T01:21:35;97908.22;;;23.22;54.54
22181;BME280;11256;50.830;12.834;2023-06-22T01:27:00;97907.06;;;23.23;54.89
22181;BME280;11256;50.830;12.834;2023-06-22T01:32:06;97901.59;;;23.11;54.95
22181;BME280;11256;50.830;12.834;2023-06-22T01:37:09;97913.00;;;23.09;55.00
22181;BME280;11256;50.830;12.834;2023-06-22T01:42:10;97898.66;;;23.04;55.24
22181;BME280;11256;50.830;12.834;2023-06-22T01:47:10;97892.91;;;22.97;55.24
22181;BME280;11256;50.830;12.834;2023-06-22T01:52:11;97892.81;;;22.93;55.31
22181;BME280;11256;50.830;12.834;2023-06-22T01:57:11;97887.47;;;22.85;55.14
22181;BME280;11256;50.830;12.834;2023-06-22T02:02:12;97864.69;;;22.76;55.51
22181;BME280;11256;50.830;12.834;2023-06-22T02:07:17;97885.69;;;22.77;55.33
22181;BME280;11256;50.830;12.834;2023-06-22T02:12:22;97885.72;;;22.65;55.44
22181;BME280;11256;50.830;12.834;2023-06-22T02:17:24;97897.31;;;22.55;55.57
22181;BME280;11256;50.830;12.834;2023-06-22T02:22:25;97907.56;;;22.54;55.76
22181;BME280;11256;50.830;12.834;2023-06-22T02:27:25;97920.81;;;22.49;55.64
22181;BME280;11256;50.830;12.834;2023-06-22T02:32:26;97908.38;;;22.43;55.76
22181;BME280;11256;50.830;12.834;2023-06-22T02:37:26;97882.63;;;22.27;55.77
22181;BME280;11256;50.830;12.834;2023-06-22T02:42:30;97887.38;;;22.26;56.02
22181;BME280;11256;50.830;12.834;2023-06-22T02:47:30;97874.16;;;22.20;56.33
22181;BME280;11256;50.830;12.834;2023-06-22T02:52:31;97878.78;;;22.16;56.49
22181;BME280;11256;50.830;12.834;2023-06-22T02:57:32;97892.94;;;22.14;56.09
22181;BME280;11256;50.830;12.834;2023-06-22T03:02:32;97893.53;;;22.08;56.29
22181;BME280;11256;50.830;12.834;2023-06-22T03:07:33;97897.47;;;22.07;56.57
22181;BME280;11256;50.830;12.834;2023-06-22T03:12:33;97883.41;;;22.00;56.28
22181;BME280;11256;50.830;12.834;2023-06-22T03:17:35;97890.91;;;21.99;56.45
22181;BME280;11256;50.830;12.834;2023-06-22T03:22:37;97877.16;;;21.87;56.82
22181;BME280;11256;50.830;12.834;2023-06-22T03:27:37;97889.31;;;21.86;56.92
22181;BME280;11256;50.830;12.834;2023-06-22T03:32:38;97882.34;;;21.77;56.68
22181;BME280;11256;50.830;12.834;2023-06-22T03:37:40;97882.22;;;21.73;56.76
22181;BME280;11256;50.830;12.834;2023-06-22T03:42:40;97882.34;;;21.77;57.12
22181;BME280;11256;50.830;12.834;2023-06-22T03:47:43;97888.56;;;21.74;57.30
22181;BME280;11256;50.830;12.834;2023-06-22T03:52:43;97886.81;;;21.69;57.36
22181;BME280;11256;50.830;12.834;2023-06-22T03:57:44;97875.09;;;21.60;57.45
22181;BME280;11256;50.830;12.834;2023-06-22T04:02:44;97915.25;;;21.70;57.00
22181;BME280;11256;50.830;12.834;2023-06-22T04:07:45;97930.06;;;21.65;57.34
22181;BME280;11256;50.830;12.834;2023-06-22T04:12:45;97939.94;;;21.66;57.63
22181;BME280;11256;50.830;12.834;2023-06-22T04:17:45;97945.34;;;21.63;57.33
22181;BME280;11256;50.830;12.834;2023-06-22T04:22:45;97937.75;;;21.48;57.07
22181;BME280;11256;50.830;12.834;2023-06-22T04:27:46;97973.38;;;21.65;56.84
22181;BME280;11256;50.830;12.834;2023-06-22T04:32:47;98009.16;;;21.85;57.20
22181;BME280;11256;50.830;12.834;2023-06-22T04:37:58;98011.25;;;21.88;56.93
22181;BME280;11256;50.830;12.834;2023-06-22T04:42:58;98012.16;;;21.92;56.79
22181;BME280;11256;50.830;12.834;2023-06-22T04:48:02;97993.41;;;21.86;56.75
22181;BME280;11256;50.830;12.834;2023-06-22T04:53:02;97969.25;;;21.83;56.49
22181;BME280;11256;50.830;12.834;2023-06-22T04:58:05;97973.97;;;21.94;57.16
22181;BME280;11256;50.830;12.834;2023-06-22T05:03:05;97977.97;;;22.09;57.10
22181;BME280;11256;50.830;12.834;2023-06-22T05:08:06;97975.19;;;22.21;57.82
22181;BME280;11256;50.830;12.834;2023-06-22T05:13:07;97962.06;;;22.30;57.93
22181;BME280;11256;50.830;12.834;2023-06-22T05:18:07;97957.69;;;22.29;58.43
22181;BME280;11256;50.830;12.834;2023-06-22T05:23:07;97964.31;;;22.52;58.44
22181;BME280;11256;50.830;12.834;2023-06-22T05:28:08;97949.34;;;22.53;57.97
22181;BME280;11256;50.830;12.834;2023-06-22T05:33:11;97920.31;;;22.59;60.13
22181;BME280;11256;50.830;12.834;2023-06-22T05:38:11;97831.19;;;22.62;63.35
22181;BME280;11256;50.830;12.834;2023-06-22T05:43:11;97733.56;;;22.58;67.34
22181;BME280;11256;50.830;12.834;2023-06-22T05:48:12;97756.09;;;22.60;64.38
22181;BME280;11256;50.830;12.834;2023-06-22T05:53:12;97791.84;;;22.68;61.82
22181;BME280;11256;50.830;12.834;2023-06-22T05:58:12;97777.75;;;22.73;63.13
22181;BME280;11256;50.830;12.834;2023-06-22T06:03:16;97800.94;;;22.84;62.20
22181;BME280;11256;50.830;12.834;2023-06-22T06:08:17;97825.84;;;23.00;61.68
22181;BME280;11256;50.830;12.834;2023-06-22T06:13:17;97828.50;;;23.12;62.31
22181;BME280;11256;50.830;12.834;2023-06-22T06:18:17;97832.25;;;23.35;62.67
22181;BME280;11256;50.830;12.834;2023-06-22T06:23:18;97835.81;;;23.51;61.74
22181;BME280;11256;50.830;12.834;2023-06-22T06:28:18;97835.56;;;23.75;61.77
22181;BME280;11256;50.830;12.834;2023-06-22T06:33:19;97843.22;;;23.97;61.99
22181;BME280;11256;50.830;12.834;2023-06-22T06:38:21;97834.53;;;24.17;61.13
22181;BME280;11256;50.830;12.834;2023-06-22T06:43:21;97851.53;;;24.35;62.24
22181;BME280;11256;50.830;12.834;2023-06-22T06:48:22;97858.63;;;24.55;61.88
22181;BME280;11256;50.830;12.834;2023-06-22T06:53:23;97849.38;;;24.66;61.35
22181;BME280;11256;50.830;12.834;2023-06-22T06:58:23;97853.34;;;24.88;61.28
22181;BME280;11256;50.830;12.834;2023-06-22T07:03:23;97860.44;;;25.08;61.04
22181;BME280;11256;50.830;12.834;2023-06-22T07:08:24;97865.22;;;25.30;61.18
22181;BME280;11256;50.830;12.834;2023-06-22T07:13:24;97839.06;;;25.57;61.93
22181;BME280;11256;50.830;12.834;2023-06-22T07:18:24;97856.97;;;26.44;63.34
22181;BME280;11256;50.830;12.834;2023-06-22T07:23:26;97855.47;;;27.27;59.66
22181;BME280;11256;50.830;12.834;2023-06-22T07:28:26;97823.31;;;27.94;60.38
22181;BME280;11256;50.830;12.834;2023-06-22T07:33:27;97818.06;;;28.64;58.92
22181;BME280;11256;50.830;12.834;2023-06-22T07:38:27;97835.72;;;29.24;57.08
22181;BME280;11256;50.830;12.834;2023-06-22T07:43:28;97850.88;;;29.44;54.34
22181;BME280;11256;50.830;12.834;2023-06-22T07:48:30;97844.09;;;29.73;54.24
22181;BME280;11256;50.830;12.834;2023-06-22T07:53:30;97846.81;;;30.01;54.56
22181;BME280;11256;50.830;12.834;2023-06-22T07:58:31;97833.88;;;30.49;53.56
22181;BME280;11256;50.830;12.834;2023-06-22T08:03:31;97835.94;;;31.13;50.13
22181;BME280;11256;50.830;12.834;2023-06-22T08:08:32;97833.81;;;31.79;51.28
22181;BME280;11256;50.830;12.834;2023-06-22T08:13:32;97832.38;;;32.38;48.59
22181;BME280;11256;50.830;12.834;2023-06-22T08:18:32;97835.34;;;33.14;48.35
22181;BME280;11256;50.830;12.834;2023-06-22T08:23:33;97826.25;;;33.79;47.49
22181;BME280;11256;50.830;12.834;2023-06-22T08:28:33;97815.78;;;34.22;46.57
22181;BME280;11256;50.830;12.834;2023-06-22T08:33:33;97812.38;;;34.69;46.08
22181;BME280;11256;50.830;12.834;2023-06-22T08:38:34;97811.34;;;35.15;44.37
22181;BME280;11256;50.830;12.834;2023-06-22T08:43:34;97809.22;;;35.51;44.15
22181;BME280;11256;50.830;12.834;2023-06-22T08:48:34;97788.69;;;35.82;42.67
22181;BME280;11256;50.830;12.834;2023-06-22T08:53:35;97804.56;;;36.21;41.47
22181;BME280;11256;50.830;12.834;2023-06-22T08:58:35;97804.00;;;36.26;41.00
22181;BME280;11256;50.830;12.834;2023-06-22T09:03:35;97811.91;;;36.59;41.50
22181;BME280;11256;50.830;12.834;2023-06-22T09:08:37;97806.97;;;36.76;40.49
22181;BME280;11256;50.830;12.834;2023-06-22T09:13:38;97795.25;;;36.90;40.45
22181;BME280;11256;50.830;12.834;2023-06-22T09:18:38;97796.84;;;37.16;38.40
22181;BME280;11256;50.830;12.834;2023-06-22T09:23:38;97778.81;;;37.35;37.16
22181;BME280;11256;50.830;12.834;2023-06-22T09:28:38;97776.75;;;37.60;38.29
22181;BME280;11256;50.830;12.834;2023-06-22T09:33:40;97776.28;;;37.74;38.10
22181;BME280;11256;50.830;12.834;2023-06-22T09:38:40;97773.41;;;37.87;37.82
22181;BME280;11256;50.830;12.834;2023-06-22T09:43:41;97772.44;;;38.02;38.04
22181;BME280;11256;50.830;12.834;2023-06-22T09:48:41;97764.56;;;38.19;36.96
22181;BME280;11256;50.830;12.834;2023-06-22T09:53:41;97769.63;;;38.24;37.13
22181;BME280;11256;50.830;12.834;2023-06-22T09:58:42;97752.25;;;38.13;37.08
22181;BME280;11256;50.830;12.834;2023-06-22T10:03:43;97756.06;;;38.19;36.61
22181;BME280;11256;50.830;12.834;2023-06-22T10:08:43;97752.66;;;37.56;34.04
22181;BME280;11256;50.830;12.834;2023-06-22T10:13:43;97752.03;;;37.27;35.81
22181;BME280;11256;50.830;12.834;2023-06-22T10:18:44;97753.16;;;36.92;36.32
22181;BME280;11256;50.830;12.834;2023-06-22T10:23:44;97752.22;;;36.45;37.21
22181;BME280;11256;50.830;12.834;2023-06-22T10:28:44;97741.91;;;36.10;37.32
22181;BME280;11256;50.830;12.834;2023-06-22T10:33:45;97742.81;;;35.78;38.32
22181;BME280;11256;50.830;12.834;2023-06-22T10:38:45;97735.34;;;35.56;38.52
22181;BME280;11256;50.830;12.834;2023-06-22T10:43:47;97733.16;;;35.47;37.96
22181;BME280;11256;50.830;12.834;2023-06-22T10:48:47;97719.97;;;35.28;40.04
22181;BME280;11256;50.830;12.834;2023-06-22T10:53:47;97717.38;;;35.18;39.79
22181;BME280;11256;50.830;12.834;2023-06-22T10:58:48;97711.75;;;35.18;40.31
22181;BME280;11256;50.830;12.834;2023-06-22T11:03:48;97706.06;;;35.05;38.51
22181;BME280;11256;50.830;12.834;2023-06-22T11:08:48;97713.91;;;34.98;38.84
22181;BME280;11256;50.830;12.834;2023-06-22T11:13:49;97708.78;;;35.25;39.44
22181;BME280;11256;50.830;12.834;2023-06-22T11:18:49;97700.69;;;35.27;40.30
22181;BME280;11256;50.830;12.834;2023-06-22T11:23:49;97680.06;;;35.14;40.29
22181;BME280;11256;50.830;12.834;2023-06-22T11:28:50;97683.41;;;35.09;38.74
22181;BME280;11256;50.830;12.834;2023-06-22T11:33:51;97685.59;;;35.17;38.24
22181;BME280;11256;50.830;12.834;2023-06-22T11:38:51;97680.72;;;35.18;37.53
22181;BME280;11256;50.830;12.834;2023-06-22T11:43:51;97673.34;;;35.24;38.92
22181;BME280;11256;50.830;12.834;2023-06-22T11:48:52;97674.31;;;35.33;37.74
22181;BME280;11256;50.830;12.834;2023-06-22T11:53:53;97667.84;;;35.49;36.99
22181;BME280;11256;50.830;12.834;2023-06-22T11:58:53;97657.00;;;35.47;38.62
22181;BME280;11256;50.830;12.834;2023-06-22T12:03:54;97640.72;;;35.67;39.23
22181;BME280;11256;50.830;12.834;2023-06-22T12:08:54;97641.78;;;35.57;38.74
22181;BME280;11256;50.830;12.834;2023-06-22T12:13:55;97634.38;;;35.63;38.30
22181;BME280;11256;50.830;12.834;2023-06-22T12:18:55;97619.59;;;36.00;37.97
22181;BME280;11256;50.830;12.834;2023-06-22T12:23:55;97626.59;;;35.67;37.66
22181;BME280;11256;50.830;12.834;2023-06-22T12:28:56;97620.66;;;35.78;37.99
22181;BME280;11256;50.830;12.834;2023-06-22T12:33:56;97620.31;;;36.29;38.30
22181;BME280;11256;50.830;12.834;2023-06-22T12:38:56;97617.00;;;35.65;36.20
22181;BME280;11256;50.830;12.834;2023-06-22T12:43:57;97606.38;;;36.10;38.18
22181;BME280;11256;50.830;12.834;2023-06-22T12:48:57;97600.53;;;36.17;35.63
22181;BME280;11256;50.830;12.834;2023-06-22T12:53:57;97595.72;;;35.89;36.05
22181;BME280;11256;50.830;12.834;2023-06-22T12:58:58;97582.75;;;35.79;36.13
22181;BME280;11256;50.830;12.834;2023-06-22T13:03:59;97542.88;;;36.52;37.59
22181;BME280;11256;50.830;12.834;2023-06-22T13:09:00;97564.00;;;35.97;36.71
22181;BME280;11256;50.830;12.834;2023-06-22T13:14:00;97563.13;;;36.00;36.15
22181;BME280;11256;50.830;12.834;2023-06-22T13:19:00;97563.81;;;36.29;36.90
22181;BME280;11256;50.830;12.834;2023-06-22T13:24:01;97553.75;;;35.91;36.46
22181;BME280;11256;50.830;12.834;2023-06-22T13:29:01;97550.91;;;36.53;37.76
22181;BME280;11256;50.830;12.834;2023-06-22T13:34:01;97535.66;;;36.38;35.74
22181;BME280;11256;50.830;12.834;2023-06-22T13:39:02;97532.66;;;36.20;36.33
22181;BME280;11256;50.830;12.834;2023-06-22T13:44:02;97526.63;;;36.31;36.64
22181;BME280;11256;50.830;12.834;2023-06-22T13:49:03;97538.03;;;36.52;37.53
22181;BME280;11256;50.830;12.834;2023-06-22T13:54:03;97525.22;;;36.60;37.76
22181;BME280;11256;50.830;12.834;2023-06-22T13:59:03;97505.75;;;36.62;37.41
22181;BME280;11256;50.830;12.834;2023-06-22T14:04:04;97500.81;;;36.54;38.13
22181;BME280;11256;50.830;12.834;2023-06-22T14:09:04;97492.13;;;36.95;37.41
22181;BME280;11256;50.830;12.834;2023-06-22T14:14:04;97491.69;;;37.18;36.40
22181;BME280;11256;50.830;12.834;2023-06-22T14:19:05;97488.72;;;37.00;36.14
22181;BME280;11256;50.830;12.834;2023-06-22T14:24:05;97481.34;;;37.02;38.32
22181;BME280;11256;50.830;12.834;2023-06-22T14:29:05;97470.31;;;37.17;37.13
22181;BME280;11256;50.830;12.834;2023-06-22T14:34:06;97460.94;;;36.86;36.60
22181;BME280;11256;50.830;12.834;2023-06-22T14:39:06;97431.38;;;37.21;37.38
22181;BME280;11256;50.830;12.834;2023-06-22T14:44:06;97439.00;;;37.33;36.63
22181;BME280;11256;50.830;12.834;2023-06-22T14:49:07;97438.41;;;37.47;37.72
22181;BME280;11256;50.830;12.834;2023-06-22T14:54:10;97442.50;;;37.46;37.62
22181;BME280;11256;50.830;12.834;2023-06-22T14:59:10;97430.63;;;37.08;34.58
22181;BME280;11256;50.830;12.834;2023-06-22T15:04:10;97423.22;;;37.23;36.62
22181;BME280;11256;50.830;12.834;2023-06-22T15:09:11;97430.06;;;37.13;35.73
22181;BME280;11256;50.830;12.834;2023-06-22T15:14:13;97411.75;;;37.05;35.08
22181;BME280;11256;50.830;12.834;2023-06-22T15:19:13;97397.50;;;36.87;36.55
22181;BME280;11256;50.830;12.834;2023-06-22T15:24:14;97402.91;;;36.94;36.98
22181;BME280;11256;50.830;12.834;2023-06-22T15:29:14;97393.09;;;37.07;37.60
22181;BME280;11256;50.830;12.834;2023-06-22T15:34:15;97394.78;;;37.05;35.71
22181;BME280;11256;50.830;12.834;2023-06-22T15:39:15;97379.81;;;37.17;36.13
22181;BME280;11256;50.830;12.834;2023-06-22T15:44:16;97354.56;;;36.58;36.04
22181;BME280;11256;50.830;12.834;2023-06-22T15:49:17;97356.94;;;36.59;35.56
22181;BME280;11256;50.830;12.834;2023-06-22T15:54:17;97345.47;;;36.20;35.72
22181;BME280;11256;50.830;12.834;2023-06-22T15:59:17;97349.28;;;36.26;36.57
22181;BME280;11256;50.830;12.834;2023-06-22T16:04:18;97346.31;;;35.95;36.71
22181;BME280;11256;50.830;12.834;2023-06-22T16:09:18;97342.19;;;35.75;36.18
22181;BME280;11256;50.830;12.834;2023-06-22T16:14:18;97338.91;;;35.64;36.67
22181;BME280;11256;50.830;12.834;2023-06-22T16:19:19;97341.72;;;35.64;37.86
22181;BME280;11256;50.830;12.834;2023-06-22T16:24:19;97331.81;;;35.47;37.82
22181;BME280;11256;50.830;12.834;2023-06-22T16:29:20;97324.59;;;35.21;37.27
22181;BME280;11256;50.830;12.834;2023-06-22T16:34:20;97306.69;;;34.74;37.62
22181;BME280;11256;50.830;12.834;2023-06-22T16:39:21;97298.78;;;34.69;38.16
22181;BME280;11256;50.830;12.834;2023-06-22T16:44:21;97295.44;;;34.74;38.52
22181;BME280;11256;50.830;12.834;2023-06-22T16:49:21;97283.22;;;34.52;37.86
22181;BME280;11256;50.830;12.834;2023-06-22T16:54:23;97283.81;;;34.59;38.30
22181;BME280;11256;50.830;12.834;2023-06-22T16:59:24;97262.94;;;34.32;38.62
22181;BME280;11256;50.830;12.834;2023-06-22T17:04:25;97255.69;;;34.31;39.17
22181;BME280;11256;50.830;12.834;2023-06-22T17:09:26;97248.66;;;34.23;39.40
22181;BME280;11256;50.830;12.834;2023-06-22T17:14:29;97246.72;;;34.20;39.44
22181;BME280;11256;50.830;12.834;2023-06-22T17:19:29;97227.34;;;34.09;39.51
22181;BME280;11256;50.830;12.834;2023-06-22T17:24:30;97217.50;;;33.89;39.69
22181;BME280;11256;50.830;12.834;2023-06-22T17:29:31;97236.25;;;34.08;40.08
22181;BME280;11256;50.830;12.834;2023-06-22T17:34:32;97225.59;;;33.87;40.29
22181;BME280;11256;50.830;12.834;2023-06-22T17:39:32;97214.31;;;33.58;39.79
22181;BME280;11256;50.830;12.834;2023-06-22T17:44:32;97184.56;;;33.45;40.12
22181;BME280;11256;50.830;12.834;2023-06-22T17:49:33;97176.56;;;33.27;40.56
22181;BME280;11256;50.830;12.834;2023-06-22T17:54:34;97180.69;;;33.23;40.49
22181;BME280;11256;50.830;12.834;2023-06-22T17:59:34;97180.34;;;33.21;40.98
22181;BME280;11256;50.830;12.834;2023-06-22T18:04:34;97176.78;;;33.04;41.16
22181;BME280;11256;50.830;12.834;2023-06-22T18:09:35;97173.69;;;32.99;41.53
22181;BME280;11256;50.830;12.834;2023-06-22T18:14:37;97170.53;;;32.81;41.73
22181;BME280;11256;50.830;12.834;2023-06-22T18:19:37;97165.69;;;32.81;41.59
22181;BME280;11256;50.830;12.834;2023-06-22T18:24:40;97147.34;;;32.77;41.57
22181;BME280;11256;50.830;12.834;2023-06-22T18:29:41;97141.28;;;32.62;41.89
22181;BME280;11256;50.830;12.834;2023-06-22T18:34:43;97153.31;;;32.63;42.10
22181;BME280;11256;50.830;12.834;2023-06-22T18:39:45;97145.41;;;32.58;42.17
22181;BME280;11256;50.830;12.834;2023-06-22T18:44:52;97138.38;;;32.50;42.32
22181;BME280;11256;50.830;12.834;2023-06-22T18:49:53;97160.06;;;32.49;42.32
22181;BME280;11256;50.830;12.834;2023-06-22T18:54:54;97181.38;;;32.47;42.15
22181;BME280;11256;50.830;12.834;2023-06-22T19:15:31;97144.84;;;32.31;42.10
22181;BME280;11256;50.830;12.834;2023-06-22T19:20:34;97107.94;;;32.13;42.38
22181;BME280;11256;50.830;12.834;2023-06-22T19:25:34;97107.09;;;32.16;42.24
22181;BME280;11256;50.830;12.834;2023-06-22T19:30:35;97130.84;;;32.11;42.42
22181;BME280;11256;50.830;12.834;2023-06-22T19:35:35;97127.41;;;32.04;42.26
22181;BME280;11256;50.830;12.834;2023-06-22T19:40:38;97125.09;;;31.99;42.44
22181;BME280;11256;50.830;12.834;2023-06-22T19:45:40;97115.16;;;31.94;43.38
22181;BME280;11256;50.830;12.834;2023-06-22T19:50:41;97103.06;;;31.81;43.42
22181;BME280;11256;50.830;12.834;2023-06-22T19:55:46;97104.63;;;31.63;44.13
22181;BME280;11256;50.830;12.834;2023-06-22T20:00:47;97100.91;;;31.50;45.17
22181;BME280;11256;50.830;12.834;2023-06-22T20:05:55;97094.22;;;31.44;44.12
22181;BME280;11256;50.830;12.834;2023-06-22T20:11:07;97093.53;;;31.17;45.30
22181;BME280;11256;50.830;12.834;2023-06-22T20:16:08;97112.16;;;31.27;44.11
22181;BME280;11256;50.830;12.834;2023-06-22T20:21:13;97129.47;;;31.22;43.98
22181;BME280;11256;50.830;12.834;2023-06-22T20:26:13;97142.13;;;31.07;44.77
22181;BME280;11256;50.830;12.834;2023-06-22T20:31:16;97150.19;;;31.05;44.75
22181;BME280;11256;50.830;12.834;2023-06-22T20:36:17;97142.19;;;31.03;44.51
22181;BME280;11256;50.830;12.834;2023-06-22T20:41:18;97125.50;;;30.96;44.65
22181;BME280;11256;50.830;12.834;2023-06-22T20:46:18;97115.72;;;30.85;44.83
22181;BME280;11256;50.830;12.834;2023-06-22T20:51:18;97115.97;;;30.94;44.87
22181;BME280;11256;50.830;12.834;2023-06-22T20:56:19;97091.25;;;30.89;44.84
22181;BME280;11256;50.830;12.834;2023-06-22T21:01:19;97123.00;;;31.02;44.42
22181;BME280;11256;50.830;12.834;2023-06-22T21:06:20;97177.03;;;31.02;45.30
22181;BME280;11256;50.830;12.834;2023-06-22T21:11:20;97217.81;;;31.03;46.05
22181;BME280;11256;50.830;12.834;2023-06-22T21:16:20;97232.97;;;30.83;48.76
22181;BME280;11256;50.830;12.834;2023-06-22T21:21:21;97216.63;;;30.78;48.31
22181;BME280;11256;50.830;12.834;2023-06-22T21:26:21;97237.53;;;30.70;47.75
22181;BME280;11256;50.830;12.834;2023-06-22T21:31:21;97224.63;;;30.49;48.11
22181;BME280;11256;50.830;12.834;2023-06-22T21:36:22;97236.72;;;30.43;47.80
22181;BME280;11256;50.830;12.834;2023-06-22T21:41:22;97275.28;;;30.28;47.71
22181;BME280;11256;50.830;12.834;2023-06-22T21:46:22;97382.34;;;29.92;49.64
22181;BME280;11256;50.830;12.834;2023-06-22T21:51:23;97386.09;;;29.75;49.67
22181;BME280;11256;50.830;12.834;2023-06-22T21:56:25;97387.75;;;29.65;50.27
22181;BME280;11256;50.830;12.834;2023-06-22T22:01:25;97360.31;;;29.50;49.54
22181;BME280;11256;50.830;12.834;2023-06-22T22:06:26;97315.50;;;29.20;50.17
22181;BME280;11256;50.830;12.834;2023-06-22T22:11:28;97300.31;;;29.21;49.49
22181;BME280;11256;50.830;12.834;2023-06-22T22:16:28;97302.00;;;29.08;49.48
22181;BME280;11256;50.830;12.834;2023-06-22T22:21:29;97312.47;;;28.90;50.35
22181;BME280;11256;50.830;12.834;2023-06-22T22:26:29;97291.03;;;28.76;50.78
22181;BME280;11256;50.830;12.834;2023-06-22T22:31:30;97221.81;;;28.54;51.10
22181;BME280;11256;50.830;12.834;2023-06-22T22:36:38;97206.53;;;28.11;53.41
22181;BME280;11256;50.830;12.834;2023-06-22T22:41:41;97232.91;;;27.89;51.32
22181;BME280;11256;50.830;12.834;2023-06-22T22:46:41;97285.94;;;27.33;56.84
22181;BME280;11256;50.830;12.834;2023-06-22T22:51:41;97328.84;;;27.14;54.30
22181;BME280;11256;50.830;12.834;2023-06-22T22:56:42;97371.06;;;27.41;53.17
22181;BME280;11256;50.830;12.834;2023-06-22T23:01:42;97426.75;;;27.41;53.90
22181;BME280;11256;50.830;12.834;2023-06-22T23:06:43;97426.72;;;27.27;54.51
22181;BME280;11256;50.830;12.834;2023-06-22T23:11:43;97418.78;;;27.29;54.48
22181;BME280;11256;50.830;12.834;2023-06-22T23:16:43;97438.63;;;27.17;54.52
22181;BME280;11256;50.830;12.834;2023-06-22T23:21:44;97450.09;;;27.08;53.49
22181;BME280;11256;50.830;12.834;2023-06-22T23:26:44;97429.81;;;26.97;54.33
22181;BME280;11256;50.830;12.834;2023-06-22T23:31:47;97393.19;;;26.78;53.33
22181;BME280;11256;50.830;12.834;2023-06-22T23:36:48;97416.25;;;26.89;53.77
22181;BME280;11256;50.830;12.834;2023-06-22T23:41:48;97444.06;;;26.85;53.65
22181;BME280;11256;50.830;12.834;2023-06-22T23:46:49;97432.13;;;26.78;54.43
22181;BME280;11256;50.830;12.834;2023-06-22T23:51:49;97356.56;;;26.62;54.46
22181;BME280;11256;50.830;12.834;2023-06-22T23:56:53;97304.06;;;26.50;53.81
